Terminal Aerodrome Forecast
Issued by NWS Pocatello, ID

Home | Current Version | Previous Version | Text Only | Print | Product List | Glossary On
Versions: 1 2 3 4 5 6 7 8 9 10 11 12
561
FTUS45 KPIH 221121
TAFBYI
TAF
KBYI 221121Z 2212/2312 VRB05KT P6SM BKN090 BKN120
     FM221800 21007KT P6SM SCT090 BKN250
     FM230300 20010KT P6SM BKN250=

USA.gov is the U.S. government's official web portal to all federal, state and local government web resources and services.